Time;durP1;ratioP1;P1;durP2;ratioP2;P2;SDS_P1;SDS_P2;PMS_P1;PMS_P2;Temp;Humidity;BMP_temperature;BMP_pressure;BME280_temperature;BME280_humidity;BME280_pressure;Samples;Min_cycle;Max_cycle;Signal;HPM_P1;HPM_P2
2023/09/23 00:01:58;;;;;;;3.27;0.90;;;13.80;99.90;;;;;;6154178;23;20376;-91
2023/09/23 00:04:23;;;;;;;2.40;0.60;;;13.80;99.90;;;;;;6151864;23;20397;-91
2023/09/23 00:06:50;;;;;;;2.95;0.70;;;13.70;99.90;;;;;;6154364;23;20850;-92
2023/09/23 00:09:18;;;;;;;2.30;0.70;;;13.50;99.90;;;;;;6127584;23;20365;-91
2023/09/23 00:11:43;;;;;;;2.83;0.85;;;13.80;99.90;;;;;;6154111;23;20780;-92
2023/09/23 00:14:11;;;;;;;2.30;0.70;;;13.60;99.90;;;;;;6152250;23;20397;-92
2023/09/23 00:16:36;;;;;;;2.00;0.70;;;13.50;99.90;;;;;;6154002;23;20428;-93
2023/09/23 00:19:02;;;;;;;2.78;0.70;;;13.70;99.90;;;;;;6153788;23;20833;-92
2023/09/23 00:21:28;;;;;;;3.58;0.80;;;13.60;99.90;;;;;;6128517;23;20440;-91
2023/09/23 00:23:57;;;;;;;2.93;0.70;;;13.60;99.90;;;;;;6129725;23;20378;-92
2023/09/23 00:26:23;;;;;;;2.83;0.50;;;14.00;99.90;;;;;;6127356;23;20473;-91
2023/09/23 00:28:49;;;;;;;3.05;0.60;;;13.20;99.90;;;;;;6153995;23;20456;-91
2023/09/23 00:31:15;;;;;;;1.95;0.50;;;13.80;99.90;;;;;;6152057;23;20791;-91
2023/09/23 00:33:41;;;;;;;2.97;0.95;;;13.20;99.90;;;;;;6153627;23;20366;-93
2023/09/23 00:36:08;;;;;;;3.40;1.17;;;13.60;99.90;;;;;;6128926;23;20880;-91
2023/09/23 00:38:35;;;;;;;2.15;0.75;;;13.20;99.90;;;;;;6128477;23;20378;-93
2023/09/23 00:41:03;;;;;;;2.65;1.00;;;13.00;99.90;;;;;;6129381;23;20873;-91
2023/09/23 00:43:29;;;;;;;3.83;1.63;;;13.20;99.90;;;;;;6127662;23;20408;-91
2023/09/23 00:45:55;;;;;;;2.40;1.00;;;13.30;99.90;;;;;;6154140;23;20397;-93
2023/09/23 00:48:21;;;;;;;3.13;1.40;;;13.40;99.90;;;;;;6127375;23;20374;-91
2023/09/23 00:50:48;;;;;;;3.15;1.35;;;13.10;99.90;;;;;;6154076;23;20366;-92
2023/09/23 00:53:15;;;;;;;1.98;1.00;;;13.40;99.90;;;;;;6127136;23;20781;-91
2023/09/23 00:55:52;;;;;;;2.67;1.15;;;13.10;99.90;;;;;;6128758;23;20490;-93
2023/09/23 00:58:26;;;;;;;1.77;1.00;;;13.30;99.90;;;;;;6152978;23;20396;-92
2023/09/23 01:00:54;;;;;;;3.50;1.50;;;13.30;99.90;;;;;;6150385;23;20448;-92
2023/09/23 01:03:21;;;;;;;4.35;1.65;;;13.40;99.90;;;;;;6128546;23;20380;-93
2023/09/23 01:05:50;;;;;;;3.45;1.15;;;13.20;99.90;;;;;;6126768;23;20389;-93
2023/09/23 01:08:18;;;;;;;3.20;1.55;;;13.10;99.90;;;;;;6153696;23;20408;-92
2023/09/23 01:10:46;;;;;;;5.30;2.22;;;13.40;99.90;;;;;;6152543;23;20420;-93
2023/09/23 01:13:12;;;;;;;3.60;2.07;;;13.40;99.90;;;;;;6128525;23;20382;-94
2023/09/23 01:15:40;;;;;;;2.63;1.50;;;13.30;99.90;;;;;;6153820;23;20387;-93
2023/09/23 01:18:21;;;;;;;3.33;1.80;;;13.10;99.90;;;;;;6151593;23;20872;-92
2023/09/23 01:20:49;;;;;;;2.92;1.60;;;13.60;99.90;;;;;;6153361;23;20881;-92
2023/09/23 01:23:15;;;;;;;4.13;1.77;;;13.00;99.90;;;;;;6151512;23;20373;-93
2023/09/23 01:25:41;;;;;;;3.63;2.03;;;13.30;99.90;;;;;;6153487;23;20405;-92
2023/09/23 01:28:13;;;;;;;3.88;2.03;;;12.90;99.90;;;;;;6152164;23;20373;-91
2023/09/23 01:30:40;;;;;;;2.78;1.58;;;13.00;99.90;;;;;;6152252;23;20391;-92
2023/09/23 01:33:12;;;;;;;2.80;0.80;;;13.30;99.90;;;;;;6129035;23;20715;-92
2023/09/23 01:35:38;;;;;;;2.00;1.20;;;13.00;99.90;;;;;;6127058;23;20544;-92
2023/09/23 01:38:05;;;;;;;3.00;1.33;;;12.90;99.90;;;;;;6153774;23;20464;-91
2023/09/23 01:40:36;;;;;;;2.40;1.10;;;13.40;99.90;;;;;;6151283;23;20373;-92
2023/09/23 01:43:02;;;;;;;2.22;1.00;;;13.10;99.90;;;;;;6127860;23;21149;-92
2023/09/23 01:45:28;;;;;;;3.90;1.60;;;13.00;99.90;;;;;;6152142;23;20401;-92
2023/09/23 01:47:56;;;;;;;3.60;1.70;;;13.10;99.90;;;;;;6152387;23;20420;-93
2023/09/23 01:50:23;;;;;;;3.93;1.73;;;13.30;99.90;;;;;;6153243;23;20405;-91
2023/09/23 01:52:49;;;;;;;3.53;1.70;;;12.90;99.90;;;;;;6126801;23;20758;-92
2023/09/23 01:55:17;;;;;;;4.03;2.30;;;12.90;99.90;;;;;;6152726;23;20373;-91
2023/09/23 01:57:43;;;;;;;3.38;1.80;;;13.40;99.90;;;;;;6150738;23;20751;-92
2023/09/23 02:00:22;;;;;;;4.07;2.20;;;12.90;99.90;;;;;;6128440;23;20435;-93
2023/09/23 02:02:53;;;;;;;4.55;2.28;;;12.60;99.90;;;;;;6127337;23;20896;-91
2023/09/23 02:05:20;;;;;;;4.18;2.70;;;12.80;99.90;;;;;;6151227;23;20409;-92
2023/09/23 02:07:48;;;;;;;3.47;2.65;;;12.70;99.90;;;;;;6128570;23;20375;-92
2023/09/23 02:10:14;;;;;;;7.27;3.80;;;12.80;99.90;;;;;;6126380;23;20665;-91
2023/09/23 02:12:42;;;;;;;5.07;3.50;;;12.40;99.90;;;;;;6152611;23;20586;-91
2023/09/23 02:15:08;;;;;;;6.22;4.10;;;12.60;99.90;;;;;;6126499;23;20378;-91
2023/09/23 02:17:36;;;;;;;6.50;3.90;;;12.30;99.90;;;;;;6128694;23;20369;-93
2023/09/23 02:20:17;;;;;;;5.90;4.13;;;11.70;99.90;;;;;;6151255;23;20381;-92
2023/09/23 02:22:43;;;;;;;5.40;3.92;;;12.50;99.90;;;;;;6127020;23;20859;-91
2023/09/23 02:25:13;;;;;;;8.10;4.60;;;12.30;99.90;;;;;;6127979;23;20531;-92
2023/09/23 02:27:41;;;;;;;5.97;4.03;;;12.50;99.90;;;;;;6151169;23;21039;-92
2023/09/23 02:30:09;;;;;;;8.00;4.60;;;12.40;99.90;;;;;;6128241;23;20365;-92
2023/09/23 02:32:40;;;;;;;7.22;5.15;;;12.10;99.90;;;;;;6126372;23;20374;-91
2023/09/23 02:35:12;;;;;;;8.13;5.20;;;12.10;99.90;;;;;;6128071;23;20369;-92
2023/09/23 02:37:42;;;;;;;5.57;4.90;;;12.20;99.90;;;;;;6127727;23;20408;-91
2023/09/23 02:40:12;;;;;;;6.05;4.10;;;12.20;99.90;;;;;;6127141;23;20415;-92
2023/09/23 02:42:40;;;;;;;6.57;5.30;;;12.10;99.90;;;;;;6128482;23;20373;-92
2023/09/23 02:45:09;;;;;;;6.90;5.13;;;12.00;99.90;;;;;;6126083;23;20405;-92
2023/09/23 02:47:36;;;;;;;7.07;5.63;;;12.00;99.90;;;;;;6128487;23;20456;-91
2023/09/23 02:50:04;;;;;;;6.95;5.70;;;12.20;99.90;;;;;;6126646;23;20738;-91
2023/09/23 02:52:29;;;;;;;8.37;5.50;;;12.00;99.90;;;;;;6128026;23;20726;-91
2023/09/23 02:54:55;;;;;;;7.00;5.67;;;11.50;99.90;;;;;;6152360;23;20491;-92
2023/09/23 02:57:21;;;;;;;9.43;7.40;;;12.10;99.90;;;;;;6152029;23;20373;-92
2023/09/23 02:59:53;;;;;;;7.33;5.43;;;12.20;99.90;;;;;;6152495;23;20436;-93
2023/09/23 03:02:24;;;;;;;6.05;5.10;;;12.20;99.90;;;;;;6151148;23;20408;-93
2023/09/23 03:04:58;;;;;;;9.10;6.57;;;11.70;99.90;;;;;;6152571;23;20440;-92
2023/09/23 03:07:30;;;;;;;8.87;6.97;;;12.00;99.90;;;;;;6151163;23;20435;-91
2023/09/23 03:10:00;;;;;;;6.30;5.47;;;11.80;99.90;;;;;;6127756;23;20448;-92
2023/09/23 03:12:29;;;;;;;16.05;5.75;;;12.10;99.90;;;;;;6152514;23;20396;-92
2023/09/23 03:14:56;;;;;;;11.25;7.35;;;11.70;99.90;;;;;;6126366;23;20433;-91
2023/09/23 03:17:22;;;;;;;8.25;6.75;;;11.70;99.90;;;;;;6152464;23;20405;-92
2023/09/23 03:19:51;;;;;;;9.40;6.07;;;12.50;99.90;;;;;;6150264;23;20400;-92
2023/09/23 03:22:21;;;;;;;9.32;6.60;;;11.60;99.90;;;;;;6152507;23;20380;-92
2023/09/23 03:24:48;;;;;;;12.75;8.82;;;11.60;99.90;;;;;;6126757;23;20411;-92
2023/09/23 03:27:14;;;;;;;7.75;6.32;;;11.50;99.90;;;;;;6152076;23;20385;-92
2023/09/23 03:29:41;;;;;;;8.57;6.65;;;11.40;99.90;;;;;;6152121;23;20877;-91
2023/09/23 03:32:07;;;;;;;9.85;7.75;;;11.80;99.90;;;;;;6150874;23;20414;-92
2023/09/23 03:34:34;;;;;;;9.27;7.03;;;11.90;99.90;;;;;;6152610;23;20408;-91
2023/09/23 03:37:00;;;;;;;10.05;8.20;;;11.90;99.90;;;;;;6150691;23;20378;-92
2023/09/23 03:39:26;;;;;;;11.17;8.53;;;11.60;99.90;;;;;;6152280;23;20493;-93
2023/09/23 03:41:52;;;;;;;14.57;9.63;;;11.70;99.90;;;;;;6150615;23;20423;-92
2023/09/23 03:44:18;;;;;;;18.23;10.90;;;11.80;99.90;;;;;;6152144;23;20385;-93
2023/09/23 03:46:47;;;;;;;32.73;11.10;;;11.70;99.90;;;;;;6126775;23;20853;-91
2023/09/23 03:49:13;;;;;;;15.65;9.93;;;11.70;99.90;;;;;;6126808;23;20381;-91
2023/09/23 03:51:39;;;;;;;11.73;9.63;;;11.50;99.90;;;;;;6152696;23;20542;-91
2023/09/23 03:54:05;;;;;;;8.73;7.77;;;11.60;99.90;;;;;;6150386;23;21021;-91
2023/09/23 03:56:33;;;;;;;22.88;13.48;;;11.40;99.90;;;;;;6152394;23;20424;-93
2023/09/23 03:59:05;;;;;;;10.07;8.75;;;11.50;99.90;;;;;;6125966;23;20368;-91
2023/09/23 04:01:32;;;;;;;50.90;8.45;;;11.30;99.90;;;;;;6152541;23;20374;-92
2023/09/23 04:03:58;;;;;;;9.45;7.88;;;11.30;99.90;;;;;;6126311;23;20369;-91
2023/09/23 04:06:23;;;;;;;12.77;9.63;;;11.50;99.90;;;;;;6151739;23;20881;-91
2023/09/23 04:08:49;;;;;;;7.97;6.93;;;11.40;99.90;;;;;;6152333;23;20827;-91
2023/09/23 04:11:18;;;;;;;8.20;7.40;;;11.30;99.90;;;;;;6150874;23;20369;-91
2023/09/23 04:13:47;;;;;;;14.63;9.40;;;11.20;99.90;;;;;;6151981;23;20472;-91
2023/09/23 04:16:13;;;;;;;10.52;8.30;;;11.40;99.90;;;;;;6150465;23;20885;-91
2023/09/23 04:18:40;;;;;;;10.55;8.35;;;11.50;99.90;;;;;;6127909;23;20432;-91
2023/09/23 04:21:06;;;;;;;12.65;10.02;;;11.50;99.90;;;;;;6150832;23;20378;-90
2023/09/23 04:23:32;;;;;;;7.72;6.97;;;11.50;99.90;;;;;;6127816;23;20381;-93
2023/09/23 04:25:57;;;;;;;15.93;10.97;;;12.20;99.90;;;;;;6152016;23;20894;-92
2023/09/23 04:28:23;;;;;;;13.60;10.98;;;11.50;99.90;;;;;;6151212;23;20869;-91
2023/09/23 04:30:53;;;;;;;17.95;12.50;;;12.10;99.90;;;;;;6129820;23;20392;-92
2023/09/23 04:33:20;;;;;;;19.48;14.32;;;11.70;99.90;;;;;;6127745;23;20420;-93
2023/09/23 04:35:46;;;;;;;24.57;16.50;;;11.70;99.90;;;;;;6129843;23;20409;-92
2023/09/23 04:38:12;;;;;;;20.17;15.65;;;11.40;99.90;;;;;;6127691;23;20731;-92
2023/09/23 04:40:39;;;;;;;17.97;14.47;;;11.60;99.90;;;;;;6129393;23;20737;-92
2023/09/23 04:43:05;;;;;;;20.67;15.20;;;11.30;99.90;;;;;;6128727;23;20428;-92
2023/09/23 04:45:30;;;;;;;22.70;17.33;;;11.50;99.90;;;;;;6128822;23;21007;-93
2023/09/23 04:47:56;;;;;;;19.48;15.23;;;11.70;99.90;;;;;;6129337;23;20377;-91
2023/09/23 04:50:28;;;;;;;21.52;17.33;;;12.00;99.90;;;;;;6127758;23;20420;-92
2023/09/23 04:52:53;;;;;;;28.60;18.67;;;11.20;99.90;;;;;;6129292;23;20370;-93
2023/09/23 04:55:21;;;;;;;27.75;19.10;;;11.30;99.90;;;;;;6127667;23;20377;-92
2023/09/23 04:57:47;;;;;;;23.97;18.20;;;11.10;99.90;;;;;;6129437;23;20377;-93
2023/09/23 05:00:17;;;;;;;26.83;19.97;;;11.20;99.90;;;;;;6128205;23;20511;-92
2023/09/23 05:02:43;;;;;;;19.38;16.83;;;11.00;99.90;;;;;;6128411;23;20382;-92
2023/09/23 05:05:12;;;;;;;27.80;20.73;;;11.60;99.90;;;;;;6128938;23;20483;-91
2023/09/23 05:07:37;;;;;;;20.10;17.70;;;11.10;99.90;;;;;;6127399;23;20374;-92
2023/09/23 05:10:07;;;;;;;27.30;20.77;;;11.20;99.90;;;;;;6129213;23;20706;-92
2023/09/23 05:12:33;;;;;;;36.17;25.65;;;10.90;99.90;;;;;;6126816;23;20521;-92
2023/09/23 05:14:59;;;;;;;27.23;20.55;;;11.10;99.90;;;;;;6129190;23;20464;-92
2023/09/23 05:17:27;;;;;;;26.67;21.55;;;10.90;99.90;;;;;;6127914;23;20392;-91
2023/09/23 05:19:53;;;;;;;44.30;26.98;;;10.90;99.90;;;;;;6128812;23;20377;-91
2023/09/23 05:22:19;;;;;;;44.95;26.83;;;11.50;99.90;;;;;;6128954;23;20680;-91
2023/09/23 05:24:47;;;;;;;23.08;19.30;;;11.10;99.90;;;;;;6127384;23;20980;-93
2023/09/23 05:27:14;;;;;;;23.15;19.95;;;10.90;99.90;;;;;;6129203;23;20865;-91
2023/09/23 05:29:41;;;;;;;27.77;21.73;;;11.10;99.90;;;;;;6127060;23;20396;-93
2023/09/23 05:32:09;;;;;;;34.60;23.15;;;10.90;99.90;;;;;;6129309;23;20456;-92
2023/09/23 05:34:35;;;;;;;29.10;21.98;;;11.10;99.90;;;;;;6127860;23;20464;-92
2023/09/23 05:37:01;;;;;;;24.33;20.38;;;11.80;99.90;;;;;;6128901;23;20736;-92
2023/09/23 05:39:27;;;;;;;33.20;23.10;;;11.30;99.90;;;;;;6128306;23;20846;-92
2023/09/23 05:41:54;;;;;;;32.17;22.50;;;10.90;99.90;;;;;;6127353;23;20384;-94
2023/09/23 05:44:20;;;;;;;30.90;21.75;;;10.90;99.90;;;;;;6128815;23;20370;-92
2023/09/23 05:46:48;;;;;;;30.27;21.13;;;11.00;99.90;;;;;;6127193;23;20749;-93
2023/09/23 05:49:13;;;;;;;27.80;20.17;;;11.20;99.90;;;;;;6129299;23;20412;-92
2023/09/23 05:51:39;;;;;;;30.33;20.63;;;11.20;99.90;;;;;;6127358;23;20418;-93
2023/09/23 05:54:07;;;;;;;21.58;17.35;;;11.00;99.90;;;;;;6128393;23;20557;-93
2023/09/23 05:56:32;;;;;;;28.90;20.30;;;10.90;99.90;;;;;;6128522;23;20377;-93
2023/09/23 05:58:58;;;;;;;27.10;20.77;;;10.90;99.90;;;;;;6128189;23;20382;-93
2023/09/23 06:01:24;;;;;;;27.05;20.75;;;11.20;99.90;;;;;;6128869;23;20369;-93
2023/09/23 06:03:50;;;;;;;31.83;22.73;;;11.40;99.90;;;;;;6126903;23;20396;-93
2023/09/23 06:06:15;;;;;;;24.77;19.85;;;11.20;99.90;;;;;;6128378;23;20430;-94
2023/09/23 06:08:41;;;;;;;36.28;22.73;;;11.80;99.90;;;;;;6126793;23;20365;-93
2023/09/23 06:11:10;;;;;;;27.25;20.23;;;11.30;99.90;;;;;;6128567;23;20381;-93
2023/09/23 06:13:35;;;;;;;30.83;21.73;;;11.80;99.90;;;;;;6126614;23;20365;-93
2023/09/23 06:16:05;;;;;;;32.77;22.03;;;11.90;99.90;;;;;;6128467;23;20436;-93
2023/09/23 06:18:32;;;;;;;31.42;21.60;;;12.00;99.90;;;;;;6127806;23;20421;-92
2023/09/23 06:20:59;;;;;;;30.80;22.25;;;12.10;99.90;;;;;;6128197;23;20420;-94
2023/09/23 06:23:25;;;;;;;31.25;22.17;;;12.00;99.90;;;;;;6128085;23;20372;-93
2023/09/23 06:25:59;;;;;;;28.85;21.13;;;12.20;99.90;;;;;;6125703;23;20425;-93
2023/09/23 06:28:25;;;;;;;34.67;23.48;;;12.00;99.90;;;;;;6127855;23;20374;-93
2023/09/23 06:30:52;;;;;;;33.17;22.42;;;12.10;99.90;;;;;;6125796;23;20777;-92
2023/09/23 06:33:18;;;;;;;42.65;25.50;;;12.20;99.90;;;;;;6127665;23;20373;-94
2023/09/23 06:35:44;;;;;;;37.05;23.92;;;12.20;99.90;;;;;;6127184;23;20429;-92
2023/09/23 06:38:10;;;;;;;36.60;23.60;;;12.20;99.90;;;;;;6126647;23;20377;-93
2023/09/23 06:40:35;;;;;;;35.43;24.13;;;12.40;99.90;;;;;;6127613;23;20858;-94
2023/09/23 06:43:02;;;;;;;40.90;25.17;;;12.70;99.90;;;;;;6125241;23;20371;-94
2023/09/23 06:45:27;;;;;;;35.40;24.63;;;12.50;99.90;;;;;;6127687;23;20904;-94
2023/09/23 06:47:53;;;;;;;34.25;24.50;;;12.80;99.90;;;;;;6125899;23;20369;-93
2023/09/23 06:50:19;;;;;;;32.37;23.40;;;12.80;99.90;;;;;;6128322;23;20381;-93
2023/09/23 06:52:45;;;;;;;33.37;23.53;;;13.00;99.90;;;;;;6125433;23;20397;-93
2023/09/23 06:55:10;;;;;;;31.83;22.93;;;13.30;99.90;;;;;;6127036;23;20372;-94
2023/09/23 06:57:36;;;;;;;31.52;23.92;;;14.00;99.90;;;;;;6127300;23;20428;-95
2023/09/23 07:00:04;;;;;;;34.17;24.03;;;13.50;99.90;;;;;;6125859;23;20424;-94
2023/09/23 07:02:30;;;;;;;33.28;24.52;;;13.30;99.90;;;;;;6127729;23;20845;-92
2023/09/23 07:04:56;;;;;;;27.83;21.83;;;13.50;99.90;;;;;;6125207;23;20393;-96
2023/09/23 07:07:21;;;;;;;34.07;24.37;;;14.20;99.90;;;;;;6127332;23;20373;-94
2023/09/23 07:09:47;;;;;;;29.42;21.98;;;14.60;99.90;;;;;;6125192;23;20400;-94
2023/09/23 07:12:13;;;;;;;29.77;22.00;;;14.00;99.90;;;;;;6127161;23;20432;-94
2023/09/23 07:14:40;;;;;;;26.08;20.45;;;14.70;99.90;;;;;;6126082;23;20365;-95
2023/09/23 07:17:06;;;;;;;24.73;18.60;;;14.50;99.90;;;;;;6127029;23;20921;-92
2023/09/23 07:19:33;;;;;;;17.83;15.93;;;15.20;99.90;;;;;;6127552;23;20409;-92
2023/09/23 07:21:59;;;;;;;23.08;18.27;;;14.90;99.90;;;;;;6124801;23;20821;-93
2023/09/23 07:24:26;;;;;;;19.55;16.55;;;14.70;99.90;;;;;;6127529;23;20369;-95
2023/09/23 07:26:56;;;;;;;24.70;18.10;;;15.00;99.90;;;;;;6125302;23;20397;-93
2023/09/23 07:29:22;;;;;;;17.13;14.88;;;14.90;99.90;;;;;;6127444;23;20751;-93
2023/09/23 07:31:48;;;;;;;18.42;16.05;;;14.80;99.90;;;;;;6125314;23;20377;-95
2023/09/23 07:34:13;;;;;;;20.73;16.30;;;15.00;99.90;;;;;;6127223;23;20377;-93
2023/09/23 07:36:39;;;;;;;25.47;18.43;;;14.70;99.90;;;;;;6126807;23;20835;-95
2023/09/23 07:39:05;;;;;;;22.98;17.83;;;15.00;99.90;;;;;;6125554;23;20536;-94
2023/09/23 07:41:31;;;;;;;25.70;18.38;;;14.80;99.90;;;;;;6127617;23;21194;-94
2023/09/23 07:43:57;;;;;;;19.23;15.70;;;14.80;99.90;;;;;;6124967;23;20854;-93
2023/09/23 07:46:23;;;;;;;23.48;18.15;;;15.70;99.90;;;;;;6127645;23;20389;-94
2023/09/23 07:48:48;;;;;;;17.20;14.13;;;15.00;99.90;;;;;;6124827;23;20373;-93
2023/09/23 07:51:14;;;;;;;16.27;13.18;;;15.20;99.90;;;;;;6127233;23;20444;-93
2023/09/23 07:53:40;;;;;;;13.90;11.57;;;15.10;99.90;;;;;;6125916;23;20381;-95
2023/09/23 07:56:05;;;;;;;12.48;9.68;;;15.10;99.90;;;;;;6125900;23;20448;-94
2023/09/23 07:58:31;;;;;;;11.32;9.20;;;15.20;99.90;;;;;;6127037;23;20369;-93
2023/09/23 08:00:57;;;;;;;11.60;8.70;;;15.50;99.90;;;;;;6148875;23;20386;-94
2023/09/23 08:03:26;;;;;;;6.65;5.45;;;15.30;99.90;;;;;;6127715;23;20404;-93
2023/09/23 08:05:53;;;;;;;7.07;5.78;;;16.00;99.90;;;;;;6150288;23;20405;-95
2023/09/23 08:08:19;;;;;;;7.28;5.03;;;15.60;99.90;;;;;;6154536;23;20381;-94
2023/09/23 08:10:55;;;;;;;9.18;5.00;;;15.40;99.90;;;;;;6127065;23;20912;-94
2023/09/23 08:13:39;;;;;;;8.02;4.28;;;15.40;99.90;;;;;;6128795;23;20389;-95
2023/09/23 08:16:04;;;;;;;7.78;4.97;;;15.30;99.90;;;;;;6128954;23;20381;-94
2023/09/23 08:18:30;;;;;;;6.40;4.53;;;15.60;99.90;;;;;;6126076;23;20401;-94
2023/09/23 08:20:59;;;;;;;6.70;4.77;;;16.00;99.90;;;;;;6153445;23;20378;-94
2023/09/23 08:23:26;;;;;;;4.97;2.47;;;15.90;99.90;;;;;;6152827;23;20369;-93
2023/09/23 08:26:08;;;;;;;5.45;2.80;;;16.10;99.90;;;;;;6156459;23;20432;-95
2023/09/23 08:28:36;;;;;;;4.97;1.70;;;16.10;99.90;;;;;;6152320;23;20417;-94
2023/09/23 08:31:08;;;;;;;3.50;1.00;;;15.80;99.90;;;;;;6155800;23;20369;-95
2023/09/23 08:33:35;;;;;;;4.40;1.00;;;16.00;99.90;;;;;;6127343;23;20380;-94
2023/09/23 08:36:01;;;;;;;3.92;0.85;;;16.00;99.90;;;;;;6130131;23;20385;-93
2023/09/23 08:38:27;;;;;;;4.32;1.00;;;16.10;99.90;;;;;;6153543;23;20374;-93
2023/09/23 08:40:53;;;;;;;3.50;0.93;;;16.20;99.90;;;;;;6126727;23;20857;-93
2023/09/23 08:43:36;;;;;;;4.25;0.85;;;16.40;99.90;;;;;;6128330;23;20408;-94
2023/09/23 08:46:05;;;;;;;2.97;1.00;;;16.30;99.90;;;;;;6151319;23;20750;-94
2023/09/23 08:48:34;;;;;;;3.33;0.80;;;16.80;99.90;;;;;;6153176;23;20368;-94
2023/09/23 08:51:02;;;;;;;3.50;0.85;;;16.80;99.90;;;;;;6153938;23;20365;-94
2023/09/23 08:53:31;;;;;;;2.95;0.80;;;16.50;99.90;;;;;;6130114;23;20409;-94
2023/09/23 08:55:56;;;;;;;3.28;1.02;;;16.60;99.90;;;;;;6152196;23;20444;-94
2023/09/23 08:58:23;;;;;;;3.80;0.90;;;16.70;99.90;;;;;;6151509;23;20416;-94
2023/09/23 09:00:51;;;;;;;3.40;0.50;;;16.60;99.90;;;;;;6128879;23;20384;-93
2023/09/23 09:03:17;;;;;;;5.40;1.15;;;16.70;99.90;;;;;;6126103;23;20879;-92
2023/09/23 09:05:52;;;;;;;3.20;0.73;;;16.90;99.90;;;;;;6129136;23;20389;-94
2023/09/23 09:08:18;;;;;;;4.05;0.82;;;17.10;99.90;;;;;;6126110;23;20377;-93
2023/09/23 09:10:49;;;;;;;3.80;0.80;;;17.30;99.90;;;;;;6129842;23;20843;-95
2023/09/23 09:13:23;;;;;;;3.10;0.60;;;17.70;99.90;;;;;;6151628;23;20384;-95
2023/09/23 09:15:51;;;;;;;4.47;0.60;;;17.60;99.90;;;;;;6128337;23;20373;-94
2023/09/23 09:18:17;;;;;;;3.45;0.50;;;17.80;99.90;;;;;;6152603;23;20370;-93
2023/09/23 09:20:42;;;;;;;3.83;0.68;;;17.70;99.90;;;;;;6125794;23;20821;-94
2023/09/23 09:23:13;;;;;;;4.80;0.60;;;17.50;99.90;;;;;;6152777;23;20388;-94
2023/09/23 09:25:47;;;;;;;3.35;0.47;;;17.20;99.90;;;;;;6125489;23;20429;-93
2023/09/23 09:28:12;;;;;;;3.72;0.30;;;17.40;99.90;;;;;;6128509;23;20457;-94
2023/09/23 09:30:39;;;;;;;3.17;0.22;;;17.00;99.90;;;;;;6126062;23;20373;-95
2023/09/23 09:33:07;;;;;;;2.77;0.57;;;17.30;99.90;;;;;;6151579;23;20380;-93
2023/09/23 09:35:39;;;;;;;3.00;0.20;;;17.60;99.90;;;;;;6152636;23;20424;-96
2023/09/23 09:38:08;;;;;;;3.33;0.30;;;17.40;99.90;;;;;;6125505;23;20838;-93
2023/09/23 09:40:33;;;;;;;3.55;0.40;;;17.60;99.90;;;;;;6128794;23;20370;-94
2023/09/23 09:43:00;;;;;;;3.33;0.30;;;17.70;99.90;;;;;;6127664;23;20665;-94
2023/09/23 09:45:27;;;;;;;2.38;0.38;;;17.80;99.90;;;;;;6153392;23;20447;-95
2023/09/23 09:47:57;;;;;;;2.58;0.30;;;17.60;99.90;;;;;;6150763;23;20376;-92
2023/09/23 09:50:23;;;;;;;1.75;0.20;;;18.30;99.90;;;;;;6151991;23;20377;-93
2023/09/23 09:52:49;;;;;;;2.13;0.40;;;18.40;99.90;;;;;;6127941;23;20375;-94
2023/09/23 09:55:19;;;;;;;3.63;0.20;;;18.30;99.90;;;;;;6126885;23;20377;-94
2023/09/23 09:57:48;;;;;;;2.30;0.20;;;18.50;99.90;;;;;;6153540;23;20408;-95
2023/09/23 10:00:35;;;;;;;2.00;0.20;;;18.80;99.90;;;;;;6126040;23;20440;-94
2023/09/23 10:03:11;;;;;;;2.53;0.30;;;19.00;99.90;;;;;;6152921;23;20374;-93
2023/09/23 10:05:49;;;;;;;1.80;0.20;;;19.40;99.90;;;;;;6151453;23;20889;-93
2023/09/23 10:08:24;;;;;;;2.40;0.20;;;19.10;99.90;;;;;;6153774;23;20710;-94
2023/09/23 10:10:58;;;;;;;2.20;0.20;;;19.00;99.90;;;;;;6154404;23;20511;-93
2023/09/23 10:13:24;;;;;;;1.52;0.20;;;18.90;99.90;;;;;;6150307;23;20376;-93
2023/09/23 10:16:13;;;;;;;2.30;0.20;;;19.00;99.90;;;;;;6123283;23;20426;-93
2023/09/23 10:18:41;;;;;;;2.00;0.20;;;19.30;99.90;;;;;;6126330;23;20377;-92
2023/09/23 10:21:08;;;;;;;2.33;0.20;;;19.80;99.90;;;;;;6127598;23;20412;-94
2023/09/23 10:23:35;;;;;;;2.28;0.28;;;19.70;99.90;;;;;;6127041;23;20365;-93
2023/09/23 10:26:31;;;;;;;1.80;0.30;;;19.80;99.90;;;;;;6126492;23;20393;-93
2023/09/23 10:28:58;;;;;;;3.35;0.32;;;19.90;99.90;;;;;;6152528;23;20917;-94
2023/09/23 10:31:28;;;;;;;1.85;0.20;;;20.00;99.90;;;;;;6129350;23;20396;-92
2023/09/23 10:33:54;;;;;;;1.73;0.20;;;19.90;99.90;;;;;;6127890;23;20427;-92
2023/09/23 10:36:23;;;;;;;1.13;0.20;;;19.90;99.90;;;;;;6149991;23;20404;-93
2023/09/23 10:38:49;;;;;;;1.52;0.30;;;20.00;99.90;;;;;;6127887;23;20385;-94
2023/09/23 10:41:15;;;;;;;1.67;0.20;;;20.10;99.90;;;;;;6151434;23;20369;-93
2023/09/23 10:43:41;;;;;;;1.45;0.20;;;20.10;99.90;;;;;;6125995;23;20373;-93
2023/09/23 10:46:10;;;;;;;2.05;0.20;;;19.90;99.90;;;;;;6152036;23;20407;-94
2023/09/23 10:48:36;;;;;;;1.47;0.30;;;19.80;99.90;;;;;;6150363;23;20385;-94
2023/09/23 10:51:02;;;;;;;1.63;0.20;;;19.80;99.90;;;;;;6127283;23;20429;-93
2023/09/23 10:53:29;;;;;;;2.25;0.20;;;19.80;99.90;;;;;;6150601;23;20369;-94
2023/09/23 10:55:55;;;;;;;1.92;0.20;;;19.60;99.90;;;;;;6128333;23;20374;-94
2023/09/23 10:58:21;;;;;;;2.05;0.20;;;19.50;99.90;;;;;;6125255;23;20401;-93
2023/09/23 11:00:48;;;;;;;1.00;0.20;;;19.30;99.90;;;;;;6154354;23;20932;-94
2023/09/23 11:07:14;;;;;;;7.95;0.43;;;18.30;99.90;;;;;;6047905;23;20411;-95
2023/09/23 11:13:35;;;;;;;8.37;2.80;;;16.00;99.90;;;;;;5944427;23;20433;-92
2023/09/23 11:16:09;;;;;;;6.50;3.53;;;15.60;99.90;;;;;;6012397;23;20391;-93
2023/09/23 11:18:36;;;;;;;7.15;4.03;;;15.30;99.90;;;;;;6133707;23;20366;-92
2023/09/23 11:21:02;;;;;;;4.97;2.05;;;15.50;99.90;;;;;;6127417;23;20489;-95
2023/09/23 11:23:29;;;;;;;6.55;1.70;;;15.10;99.90;;;;;;6151186;23;20908;-93
2023/09/23 11:25:55;;;;;;;3.93;2.43;;;15.20;99.90;;;;;;6150789;23;20393;-94
2023/09/23 11:28:23;;;;;;;4.60;3.47;;;15.20;99.90;;;;;;6151674;23;20385;-93
2023/09/23 11:30:50;;;;;;;18.08;4.97;;;15.10;99.90;;;;;;6124888;23;20871;-93
2023/09/23 11:33:16;;;;;;;9.82;3.50;;;14.50;99.90;;;;;;6129605;23;20395;-95
2023/09/23 11:35:43;;;;;;;11.07;6.00;;;14.90;99.90;;;;;;6149154;23;20861;-94
2023/09/23 11:38:10;;;;;;;12.93;7.65;;;14.80;99.90;;;;;;6128437;23;20781;-94
2023/09/23 11:40:36;;;;;;;8.35;6.25;;;14.90;99.90;;;;;;6127042;23;20684;-93
2023/09/23 11:43:02;;;;;;;8.77;6.47;;;15.20;99.90;;;;;;6128285;23;20373;-94
2023/09/23 11:45:28;;;;;;;11.30;7.20;;;15.50;99.90;;;;;;6152848;23;20400;-94
2023/09/23 11:47:57;;;;;;;5.90;4.00;;;16.50;99.90;;;;;;6127425;23;20444;-94
2023/09/23 11:50:26;;;;;;;5.32;3.70;;;16.80;99.90;;;;;;6153924;23;20566;-93
2023/09/23 11:52:54;;;;;;;8.85;5.45;;;17.10;99.90;;;;;;6126417;23;20456;-94
2023/09/23 11:55:22;;;;;;;6.72;4.75;;;17.40;99.90;;;;;;6153306;23;20765;-94
2023/09/23 11:57:49;;;;;;;5.35;2.53;;;17.60;99.90;;;;;;6151038;23;20370;-93
2023/09/23 12:00:16;;;;;;;4.45;2.40;;;18.40;99.90;;;;;;6128277;23;20455;-93
2023/09/23 12:02:42;;;;;;;5.10;2.92;;;17.80;99.90;;;;;;6128151;23;20396;-95
2023/09/23 12:05:08;;;;;;;2.50;1.10;;;18.20;99.90;;;;;;6126409;23;20397;-94
2023/09/23 12:07:35;;;;;;;3.40;1.00;;;18.20;99.90;;;;;;6128662;23;20368;-95
2023/09/23 12:10:13;;;;;;;3.60;0.98;;;18.40;99.90;;;;;;6126387;23;20832;-95
2023/09/23 12:12:39;;;;;;;2.63;1.10;;;18.40;99.90;;;;;;6153442;23;20460;-93
2023/09/23 12:15:09;;;;;;;3.63;1.58;;;19.00;99.90;;;;;;6151330;23;20366;-95
2023/09/23 12:17:35;;;;;;;4.88;1.83;;;18.80;99.90;;;;;;6128689;23;20380;-96
2023/09/23 12:20:01;;;;;;;3.67;1.50;;;19.00;99.90;;;;;;6151893;23;20384;-94
2023/09/23 12:22:27;;;;;;;4.05;1.80;;;19.30;99.90;;;;;;6126779;23;20377;-95
2023/09/23 12:25:10;;;;;;;3.20;0.87;;;19.70;99.90;;;;;;6128836;23;20590;-94
2023/09/23 12:27:36;;;;;;;3.13;0.43;;;19.60;99.90;;;;;;6125737;23;20370;-94
2023/09/23 12:30:03;;;;;;;1.80;0.60;;;19.60;99.90;;;;;;6129651;23;20378;-94
2023/09/23 12:32:28;;;;;;;3.20;0.52;;;19.50;99.90;;;;;;6127593;23;21037;-94
2023/09/23 12:34:54;;;;;;;3.20;0.65;;;19.70;99.90;;;;;;6129229;23;20416;-94
2023/09/23 12:37:27;;;;;;;4.00;0.60;;;19.90;99.90;;;;;;6126779;23;20393;-94
2023/09/23 12:39:55;;;;;;;3.83;0.60;;;20.20;99.90;;;;;;6128193;23;20380;-94
2023/09/23 12:42:21;;;;;;;3.05;0.50;;;20.60;99.90;;;;;;6154182;23;20370;-93
2023/09/23 12:44:47;;;;;;;3.00;0.50;;;21.10;99.90;;;;;;6151713;23;20372;-94
2023/09/23 12:47:12;;;;;;;2.87;0.60;;;20.50;99.90;;;;;;6130098;23;20742;-95
2023/09/23 12:49:40;;;;;;;2.95;0.40;;;20.30;99.90;;;;;;6125103;23;20468;-94
2023/09/23 12:52:21;;;;;;;3.15;0.38;;;20.00;99.90;;;;;;6130803;23;20901;-95